Latest Coastal Weather Observations for Willis Island

IDQ60701

Issued at 6:13 pm EST Wednesday 8 February 2023 (issued every 10 minutes, with the page automatically refreshed every 10 minutes)

About coastal observations | Map of coastal stations | Coastal observations for QLD | Marine services | Other Formats
Station Details ID: 200283 Name: WILLIS ISLAND Lat: -16.29 Lon: 149.97 Height: 9.29 m
Data from the previous 72 hours. | See also: Recent months at Willis Island
Date/Time
EST
Wind Sea
Height
m
Swell Vis
km
Cloud Weather Temp
°C
Press
MSL
hPa
Rain since
9am
mm
Dir  Spd
kts
Gust
kts
Height
m
Period
s
Dir
08/06:00pm SSW 25 31 - - - - - - - 28.7 997.0 2.8
08/05:30pm SSW 25 29 - - - - - - - 28.7 997.1 2.8
08/05:00pm S 22 28 - - - - - - - 28.3 996.9 2.8
08/04:30pm S 23 28 - - - - - - - 29.1 996.9 2.4
08/04:00pm SSW 27 33 - - - - - - - 29.2 997.1 2.4
08/03:30pm S 23 27 - - - - - - - 29.2 997.3 2.4
08/03:00pm S 24 29 - - - - - - Recent precip. 28.9 997.5 2.4
08/02:30pm S 23 28 - - - - - - - 28.4 997.4 2.4
08/02:09pm S 25 36 - - - - - - - 26.8 997.9 2.2
08/02:00pm S 24 28 - - - - - - - 29.8 997.8 1.4
08/01:30pm S 20 24 - - - - - - - 29.4 998.2 1.4
08/01:00pm S 23 27 - - - - - - - 29.3 998.5 1.4
08/12:30pm S 23 27 - - - - - - - 29.7 998.9 1.4
08/12:09pm S 23 35 - - - - - - - 28.6 999.2 1.4
08/12:00pm S 22 27 - - - - - - - 29.5 999.2 1.4
08/11:30am S 23 27 - - - - - - - 29.1 999.6 1.4
08/11:00am S 23 28 - - - - - - - 28.7 1000.0 1.4
08/10:30am SSE 17 21 - - - - - - - 28.9 999.8 1.2
08/10:00am SSE 21 29 - - - - - - - 28.3 1000.5 0.2
08/09:30am SSE 23 29 - - - - - - - 29.5 1000.5 0.0
08/09:00am SSE 23 27 - - - - - - - 29.6 1000.6 4.0
08/08:30am SSE 24 28 - - - - - - - 29.5 1000.5 4.0
08/08:00am SSE 23 29 - - - - - - - 29.0 1000.3 4.0
08/07:30am SSE 25 30 - - - - - - - 28.6 1000.1 4.0
08/07:00am SSE 25 30 - - - - - - - 28.3 999.8 4.0
08/06:30am SSE 24 31 - - - - - - - 28.1 999.4 4.0
08/06:00am SSE 23 29 - - - - - - Recent precip. 28.1 999.3 4.0
08/05:30am SSE 23 29 - - - - - - - 27.6 999.2 4.0
08/05:00am SSE 25 31 - - - - - - - 28.0 999.2 3.2
08/04:30am SSE 26 31 - - - - - - - 27.3 999.2 3.2
08/04:19am SSE 22 32 - - - - - - - 27.7 999.3 2.8
08/04:00am SSE 26 31 - - - - - - - 26.9 999.3 2.8
08/03:49am SSE 25 37 - - - - - - - 27.3 999.4 2.2
08/03:30am SSE 23 28 - - - - - - - 28.3 999.5 1.8
08/03:00am SSE 25 30 - - - - - - - 28.2 999.8 1.8
08/02:30am SSE 23 29 - - - - - - - 28.7 999.8 1.8
08/02:00am SSE 24 28 - - - - - - - 28.6 1000.4 1.8
08/01:30am SSE 24 28 - - - - - - - 28.6 1000.6 1.8
08/01:00am SSE 23 27 - - - - - - - 28.6 1001.1 1.8
08/12:30am SSE 22 27 - - - - - - - 28.6 1001.9 1.8
08/12:00am SSE 22 26 - - - - - - - 28.7 1002.4 1.8
 
Date/Time
EST
Wind Sea
Height
m
Swell Vis
km
Cloud Weather Temp
°C
Press
MSL
hPa
Rain since
9am
mm
Dir  Spd
kts
Gust
kts
Height
m
Period
s
Dir
07/11:30pm SE 22 26 - - - - - - - 28.7 1002.8 1.8
07/11:00pm SE 22 25 - - - - - - - 28.7 1002.8 1.8
07/10:30pm SE 23 28 - - - - - - - 28.7 1003.5 1.8
07/10:00pm SE 22 27 - - - - - - - 28.4 1003.0 1.8
07/09:30pm SE 22 25 - - - - - - - 27.9 1003.0 1.8
07/09:00pm SE 21 25 - - - - - - Recent precip. 28.1 1002.7 1.8
07/08:30pm SE 22 27 - - - - - - - 28.3 1002.9 1.6
07/08:00pm SE 23 28 - - - - - - - 28.5 1002.8 1.6
07/07:30pm SE 23 30 - - - - - - - 28.3 1002.4 1.6
07/07:00pm SE 22 26 - - - - - - - 27.6 1002.4 1.6
07/06:30pm SE 22 26 - - - - - - - 28.1 1002.3 1.6
07/06:00pm SE 22 29 - - - - - - - 28.1 1001.9 1.6
07/05:30pm SSE 23 28 - - - - - - - 28.9 1001.6 1.6
07/05:00pm SSE 18 21 - - - - - - - 28.9 1001.1 1.6
07/04:30pm SE 16 19 - - - - - - - 28.6 1001.3 1.6
07/04:00pm SE 19 22 - - - - - - - 28.1 1001.1 1.6
07/03:30pm SE 22 27 - - - - - - - 27.5 1001.5 1.4
07/03:00pm SSE 17 20 - - - - - - - 28.7 1001.9 1.4
07/02:30pm SSE 17 19 - - - - - - - 28.5 1002.5 1.4
07/02:00pm SSE 19 24 - - - - - - - 28.4 1002.7 1.4
07/01:30pm SSE 18 22 - - - - - - - 28.2 1002.8 1.4
07/01:07pm SSE 20 23 - - - - - - - 27.7 1003.0 1.4
07/01:00pm SSE 19 23 - - - - - - - 27.4 1003.1 1.4
07/12:57pm SSE 18 23 - - - - - - - 27.7 1003.1 1.2
07/12:30pm SSE 21 26 - - - - - - - 27.8 1003.3 1.2
07/12:00pm S 19 23 - - - - - - Rain 28.1 1003.3 0.6
07/11:55am S 18 21 - - - - - - - 28.0 1003.6 0.4
07/11:38am S 20 23 - - - - - - - 28.1 1004.0 0.2
07/11:30am S 19 23 - - - - - - - 28.6 1004.1 0.2
07/11:00am S 17 21 - - - - - - - 28.8 1004.4 0.2
07/10:30am SSE 18 21 - - - - - - - 28.1 1004.8 0.0
07/10:00am S 19 21 - - - - - - - 28.3 1004.7 0.0
07/09:30am SSE 19 22 - - - - - - - 28.8 1005.3 0.0
07/09:00am SSE 19 21 - - - - - - - 29.0 1005.8 0.2
07/08:30am SSE 19 22 - - - - - - - 29.4 1005.4 0.2
07/08:00am SSE 18 21 - - - - - - - 29.4 1004.8 0.2
07/07:30am SSE 19 21 - - - - - - - 29.0 1004.7 0.2
07/07:00am SSE 17 21 - - - - - - - 28.6 1004.9 0.2
07/06:30am SSE 20 23 - - - - - - - 28.5 1004.4 0.2
07/06:00am SSE 21 24 - - - - - - - 28.4 1004.1 0.2
07/05:30am SSE 20 25 - - - - - - - 28.3 1003.9 0.2
07/05:00am SSE 19 22 - - - - - - - 28.5 1003.7 0.2
07/04:30am SE 18 20 - - - - - - - 28.3 1003.7 0.2
07/04:00am SSE 15 18 - - - - - - - 28.0 1003.5 0.2
07/03:30am SSE 16 18 - - - - - - - 27.9 1003.6 0.2
07/03:00am SE 17 19 - - - - - - - 28.1 1003.9 0.2
07/02:30am SE 17 20 - - - - - - - 28.2 1004.1 0.2
07/02:00am SE 14 19 - - - - - - - 28.0 1004.5 0.2
07/01:30am SE 10 13 - - - - - - - 27.4 1004.9 0.2
07/01:00am ESE 19 25 - - - - - - - 26.9 1005.2 0.2
07/12:49am ESE 24 27 - - - - - - - 26.8 1005.4 0.2
07/12:30am SE 16 19 - - - - - - - 28.3 1005.8 0.2
07/12:00am SE 17 21 - - - - - - - 27.9 1006.2 0.2
 
Date/Time
EST
Wind Sea
Height
m
Swell Vis
km
Cloud Weather Temp
°C
Press
MSL
hPa
Rain since
9am
mm
Dir  Spd
kts
Gust
kts
Height
m
Period
s
Dir
06/11:30pm SSE 17 20 - - - - - - - 28.4 1006.6 0.2
06/11:00pm SSE 17 19 - - - - - - - 28.2 1006.7 0.2
06/10:30pm SSE 17 20 - - - - - - - 28.5 1006.9 0.2
06/10:00pm SE 16 20 - - - - - - - 28.4 1006.9 0.2
06/09:30pm SE 17 20 - - - - - - - 28.3 1006.7 0.2
06/09:00pm SE 18 21 - - - - - - - 28.3 1006.6 0.2
06/08:30pm SE 18 22 - - - - - - - 28.3 1006.3 0.2
06/08:00pm SE 17 20 - - - - - - - 28.4 1006.3 0.2
06/07:30pm SE 19 22 - - - - - - - 28.4 1006.5 0.2
06/07:00pm SSE 19 22 - - - - - - - 28.5 1006.4 0.2
06/06:30pm SE 18 21 - - - - - - - 28.5 1006.3 0.2
06/06:00pm SE 18 21 - - - - - - - 28.9 1005.9 0.2
06/05:30pm SE 19 21 - - - - - - - 29.0 1005.5 0.2
06/05:00pm SE 19 22 - - - - - - - 29.4 1005.2 0.2
06/04:30pm SE 18 22 - - - - - - - 29.9 1005.1 0.2
06/04:00pm SSE 19 23 - - - - - - - 30.1 1004.8 0.2
06/03:30pm SE 17 20 - - - - - - - 30.3 1005.2 0.2
06/03:00pm SE 17 19 - - - - - - - 30.2 1005.3 0.2
06/02:30pm SE 18 21 - - - - - - - 30.3 1005.7 0.2
06/02:00pm SE 17 20 - - - - - - - 30.3 1006.1 0.2
06/01:30pm SE 17 19 - - - - - - - 30.2 1006.4 0.2
06/01:00pm SE 16 18 - - - - - - - 30.6 1006.6 0.2
06/12:30pm SE 15 17 - - - - - - - 30.9 1006.9 0.2
06/12:00pm SE 15 18 - - - - - - - 30.3 1007.3 0.0
06/11:30am SE 15 17 - - - - - - - 30.6 1007.6 0.0
06/11:00am SE 15 18 - - - - - - - 30.7 1008.0 0.0
06/10:30am SE 16 17 - - - - - - - 30.4 1008.2 0.0
06/10:00am ESE 15 18 - - - - - - - 30.3 1008.4 0.0
06/09:30am ESE 14 17 - - - - - - - 30.0 1008.4 0.0
06/09:00am SE 15 17 - - - - - - - 29.6 1008.5 6.2
06/08:30am ESE 13 18 - - - - - - - 28.9 1008.4 6.2
06/08:00am SE 13 15 - - - - - - - 29.2 1008.3 6.2
06/07:30am ESE 14 17 - - - - - - - 29.3 1007.8 6.2
06/07:00am ESE 15 18 - - - - - - - 28.8 1007.6 6.2
06/06:30am ESE 15 17 - - - - - - - 28.7 1007.3 6.2
06/06:00am ESE 11 13 - - - - - - - 28.1 1007.0 6.2
06/05:30am ESE 12 15 - - - - - - - 27.9 1006.7 6.2
06/05:00am ESE 17 20 - - - - - - - 27.9 1006.3 6.2
06/04:30am ESE 17 19 - - - - - - - 28.3 1006.1 6.2
06/04:00am ESE 17 19 - - - - - - - 28.3 1005.9 6.2
06/03:30am ESE 13 16 - - - - - - - 28.1 1005.7 6.2
06/03:00am ESE 8 14 - - - - - - Recent precip. 27.6 1005.8 6.0
06/02:30am E 7 9 - - - - - - - 26.9 1005.8 6.0
06/02:15am E 12 20 - - - - - - - 26.9 1005.9 4.2
06/02:00am ESE 7 9 - - - - - - - 26.7 1006.0 3.8
06/01:30am E 9 14 - - - - - - - 26.8 1006.4 3.0
06/01:00am E 10 14 - - - - - - - 27.6 1006.4 2.2
06/12:30am SE 5 7 - - - - - - - 27.3 1006.9 2.2
06/12:00am ENE 7 11 - - - - - - Rain 27.0 1007.2 2.2
 
Date/Time
EST
Wind Sea
Height
m
Swell Vis
km
Cloud Weather Temp
°C
Press
MSL
hPa
Rain since
9am
mm
Dir  Spd
kts
Gust
kts
Height
m
Period
s
Dir
05/11:38pm E 11 21 - - - - - - - 26.9 1007.2 0.4
05/11:30pm ESE 6 9 - - - - - - - 28.0 1007.5 0.0
05/11:00pm E 10 12 - - - - - - - 28.4 1007.6 0.0
05/10:30pm E 10 11 - - - - - - - 28.8 1007.5 0.0
05/10:00pm E 8 10 - - - - - - - 28.8 1007.5 0.0
05/09:30pm E 9 11 - - - - - - - 28.7 1007.3 0.0
05/09:00pm E 11 12 - - - - - - - 28.8 1007.2 0.0
05/08:30pm E 11 13 - - - - - - - 28.8 1007.0 0.0
05/08:00pm E 11 13 - - - - - - - 28.7 1006.8 0.0
05/07:30pm ESE 8 10 - - - - - - - 28.5 1006.7 0.0
05/07:00pm SE 7 8 - - - - - - - 28.3 1006.5 0.0
05/06:30pm ESE 7 8 - - - - - - - 28.6 1006.2 0.0

Other formats

Comma delimited format used in spreadsheet applications
http://www.bom.gov.au/fwo/IDQ60701/IDQ60701.94299.axf

JavaScript Object Notation format (JSON) in row-major order
http://www.bom.gov.au/fwo/IDQ60701/IDQ60701.94299.json

Data quality

Most of these data are generated automatically and are frequently updated. Quality checks on data are not normally performed. It is possible for incorrect values to appear. Refer to information at About Latest Weather Observations and please check the disclaimer before using these data.